Time;durP1;ratioP1;P1;durP2;ratioP2;P2;SDS_P1;SDS_P2;PMS_P1;PMS_P2;Temp;Humidity;BMP_temperature;BMP_pressure;BME280_temperature;BME280_humidity;BME280_pressure;Samples;Min_cycle;Max_cycle;Signal;HPM_P1;HPM_P2
2023/09/13 00:01:31;;;;;;;26.17;18.75;;;;;;;29.50;nan;97703.06;5073874;28;20139;-63
2023/09/13 00:04:01;;;;;;;23.88;20.80;;;;;;;29.45;nan;97712.28;5081019;28;20135;-63
2023/09/13 00:06:31;;;;;;;23.88;20.88;;;;;;;29.37;nan;97719.44;5082079;28;20568;-63
2023/09/13 00:09:01;;;;;;;26.95;21.20;;;;;;;29.41;nan;97723.06;5080902;28;20048;-63
2023/09/13 00:11:30;;;;;;;28.13;20.67;;;;;;;29.38;nan;97715.56;5070587;28;20056;-63
2023/09/13 00:13:59;;;;;;;23.10;20.70;;;;;;;29.40;nan;97721.47;5070766;28;20044;-63
2023/09/13 00:16:29;;;;;;;27.48;21.55;;;;;;;29.44;nan;97722.38;5076267;28;20134;-63
2023/09/13 00:19:00;;;;;;;23.70;19.77;;;;;;;29.43;nan;97728.97;5066575;28;20778;-62
2023/09/13 00:21:31;;;;;;;25.17;20.42;;;;;;;29.36;nan;97733.41;5081520;28;20068;-63
2023/09/13 00:24:00;;;;;;;26.25;21.98;;;;;;;29.33;nan;97725.91;5087536;28;20394;-62
2023/09/13 00:26:30;;;;;;;28.10;21.63;;;;;;;29.23;nan;97732.56;5072890;28;20077;-63
2023/09/13 00:28:59;;;;;;;27.88;21.15;;;;;;;29.17;nan;97736.63;5085158;28;20131;-62
2023/09/13 00:31:28;;;;;;;24.33;20.35;;;;;;;29.19;nan;97737.09;5076647;28;20052;-62
2023/09/13 00:33:58;;;;;;;25.33;20.73;;;;;;;29.20;nan;97735.97;5069558;28;20148;-62
2023/09/13 00:36:28;;;;;;;25.83;21.15;;;;;;;29.10;nan;97738.31;5083188;28;20058;-62
2023/09/13 00:38:57;;;;;;;32.90;20.00;;;;;;;29.19;nan;97741.75;5080136;28;20048;-62
2023/09/13 00:41:26;;;;;;;28.17;19.65;;;;;;;29.12;nan;97747.72;5052564;28;20918;-63
2023/09/13 00:43:55;;;;;;;22.23;19.05;;;;;;;29.19;nan;97761.63;5062804;28;20539;-62
2023/09/13 00:46:26;;;;;;;24.83;20.45;;;;;;;29.16;nan;97762.31;5081687;28;20052;-63
2023/09/13 00:48:56;;;;;;;26.88;20.02;;;;;;;29.20;nan;97759.72;5086625;28;20147;-63
2023/09/13 00:51:27;;;;;;;24.23;20.00;;;;;;;29.15;nan;97768.09;5077428;28;20048;-62
2023/09/13 00:53:57;;;;;;;27.40;22.15;;;;;;;29.19;nan;97772.53;5065145;28;20063;-63
2023/09/13 00:56:27;;;;;;;25.10;20.90;;;;;;;29.14;nan;97772.75;5078269;28;20058;-62
2023/09/13 00:58:57;;;;;;;23.88;20.98;;;;;;;29.24;nan;97774.28;5074103;28;20139;-63
2023/09/13 01:01:27;;;;;;;30.83;21.98;;;;;;;29.20;nan;97776.88;5076027;28;20048;-63
2023/09/13 01:03:58;;;;;;;23.88;21.30;;;;;;;29.21;nan;97777.69;5065492;28;20044;-63
2023/09/13 01:06:27;;;;;;;22.40;20.10;;;;;;;29.26;nan;97780.97;5078057;28;20052;-63
2023/09/13 01:09:00;;;;;;;32.03;21.02;;;;;;;29.22;nan;97776.53;5050750;28;20048;-63
2023/09/13 01:11:29;;;;;;;;;;;;;;;29.27;nan;97779.03;5078497;28;20133;-63
2023/09/13 01:13:58;;;;;;;25.42;21.25;;;;;;;29.30;nan;97787.38;5082093;28;19947;-63
2023/09/13 01:16:45;;;;;;;23.73;20.45;;;;;;;29.22;nan;97796.41;5081469;28;20055;-63
2023/09/13 01:19:36;;;;;;;25.48;21.23;;;;;;;29.20;nan;97793.25;5066063;28;20063;-63
2023/09/13 01:22:05;;;;;;;25.33;20.48;;;;;;;29.30;nan;97798.28;5072468;28;20051;-63
2023/09/13 01:24:59;;;;;;;24.77;21.63;;;;;;;29.37;nan;97804.00;5069643;28;20058;-63
2023/09/13 01:27:47;;;;;;;25.70;21.33;;;;;;;29.37;nan;97804.00;5086229;28;20437;-63
2023/09/13 01:30:18;;;;;;;26.80;21.50;;;;;;;29.30;nan;97814.66;5085420;28;20054;-62
2023/09/13 01:32:51;;;;;;;29.92;22.02;;;;;;;29.41;nan;97813.09;5082707;28;20483;-63
2023/09/13 01:35:20;;;;;;;27.47;21.70;;;;;;;29.53;nan;97814.25;5083481;28;21398;-63
2023/09/13 01:37:49;;;;;;;26.88;22.63;;;;;;;29.50;nan;97812.22;5068302;28;20058;-62
2023/09/13 01:40:26;;;;;;;32.78;22.85;;;;;;;29.48;nan;97814.47;5067587;28;20229;-63
2023/09/13 01:43:14;;;;;;;27.33;22.83;;;;;;;29.55;nan;97806.56;5083494;28;20131;-62
2023/09/13 01:45:44;;;;;;;30.50;24.27;;;;;;;29.47;nan;97812.91;5068612;28;20370;-63
2023/09/13 01:48:17;;;;;;;34.60;24.67;;;;;;;29.46;nan;97806.66;5064002;28;20161;-63
2023/09/13 01:50:48;;;;;;;32.90;24.10;;;;;;;29.48;nan;97809.00;5069547;28;20059;-63
2023/09/13 01:53:18;;;;;;;32.38;24.60;;;;;;;29.50;nan;97809.50;5067892;28;20052;-63
2023/09/13 01:55:47;;;;;;;34.83;24.08;;;;;;;29.68;nan;97808.16;5074625;28;20479;-62
2023/09/13 01:58:16;;;;;;;31.73;25.27;;;;;;;29.74;nan;97806.81;5086619;28;20503;-63
2023/09/13 02:00:46;;;;;;;29.52;23.98;;;;;;;29.92;nan;97810.94;5069515;28;20120;-63
2023/09/13 02:03:15;;;;;;;31.35;24.05;;;;;;;30.13;nan;97808.94;5086938;28;20380;-63
2023/09/13 02:05:44;;;;;;;32.70;24.25;;;;;;;30.21;nan;97812.66;5072493;28;20055;-63
2023/09/13 02:08:15;;;;;;;28.60;22.92;;;;;;;30.21;nan;97818.94;5071473;28;20472;-63
2023/09/13 02:10:50;;;;;;;31.00;25.23;;;;;;;30.29;nan;97826.22;5088349;28;20444;-63
2023/09/13 02:13:20;;;;;;;32.95;24.60;;;;;;;30.37;nan;97829.16;5078533;28;20055;-63
2023/09/13 02:15:49;;;;;;;31.15;24.85;;;;;;;30.42;nan;97835.19;5068754;28;20044;-63
2023/09/13 02:18:19;;;;;;;28.42;23.98;;;;;;;30.53;nan;97830.91;5084249;28;20048;-63
2023/09/13 02:20:48;;;;;;;27.45;23.85;;;;;;;30.63;nan;97837.81;5089740;28;20125;-63
2023/09/13 02:23:17;;;;;;;31.60;24.65;;;;;;;30.72;nan;97836.53;5089176;28;20694;-63
2023/09/13 02:25:47;;;;;;;30.20;23.67;;;;;;;30.75;nan;97838.59;5064137;28;20048;-63
2023/09/13 02:28:17;;;;;;;30.73;24.52;;;;;;;30.80;nan;97834.84;5060532;28;20048;-63
2023/09/13 02:30:47;;;;;;;30.63;24.48;;;;;;;30.84;nan;97830.25;5057542;28;20051;-63
2023/09/13 02:33:16;;;;;;;27.42;23.13;;;;;;;31.05;nan;97828.16;5080792;28;20070;-63
2023/09/13 02:36:02;;;;;;;36.40;24.63;;;;;;;31.06;nan;97823.50;5089048;28;20064;-63
2023/09/13 02:38:32;;;;;;;36.20;24.95;;;;;;;31.15;nan;97819.47;5065911;28;20058;-63
2023/09/13 02:41:01;;;;;;;28.40;24.52;;;;;;;31.19;nan;97823.09;5083143;28;20064;-63
2023/09/13 02:43:30;;;;;;;30.30;25.17;;;;;;;31.23;nan;97819.66;5087404;28;20040;-63
2023/09/13 02:46:00;;;;;;;36.25;24.88;;;;;;;31.31;nan;97826.91;5068146;28;20044;-63
2023/09/13 02:48:29;;;;;;;31.33;24.13;;;;;;;31.24;nan;97829.47;5067820;28;20045;-63
2023/09/13 02:50:59;;;;;;;28.67;22.65;;;;;;;31.32;nan;97836.72;5088101;28;20619;-63
2023/09/13 02:53:28;;;;;;;26.75;21.17;;;;;;;31.33;nan;97843.78;5054573;28;20040;-63
2023/09/13 02:56:08;;;;;;;23.75;20.65;;;;;;;31.35;nan;97850.50;5051292;28;20798;-63
2023/09/13 02:58:38;;;;;;;30.83;21.05;;;;;;;31.46;nan;97857.09;5086116;28;20131;-63
2023/09/13 03:01:10;;;;;;;24.80;20.30;;;;;;;31.40;nan;97855.72;5073201;28;20044;-63
2023/09/13 03:03:42;;;;;;;24.58;20.63;;;;;;;31.64;nan;97854.84;5087676;28;20047;-63
2023/09/13 03:06:13;;;;;;;27.05;20.38;;;;;;;31.78;nan;97857.94;5082486;28;20048;-63
2023/09/13 03:08:44;;;;;;;25.88;20.90;;;;;;;31.65;nan;97861.91;5063868;28;20059;-63
2023/09/13 03:11:18;;;;;;;33.70;21.30;;;;;;;31.72;nan;97862.09;5060318;28;20497;-63
2023/09/13 03:13:48;;;;;;;25.58;20.45;;;;;;;31.78;nan;97866.16;5087381;28;20052;-63
2023/09/13 03:16:21;;;;;;;27.13;21.55;;;;;;;31.83;nan;97867.84;5086402;28;20044;-63
2023/09/13 03:18:52;;;;;;;30.58;20.30;;;;;;;31.96;nan;97861.94;5069761;28;20093;-63
2023/09/13 03:21:28;;;;;;;33.90;22.85;;;;;;;31.92;nan;97868.47;5066268;28;20141;-63
2023/09/13 03:23:58;;;;;;;28.98;20.92;;;;;;;31.92;nan;97882.16;5087582;28;20063;-63
2023/09/13 03:26:28;;;;;;;28.85;20.88;;;;;;;32.01;nan;97880.84;5069105;28;20582;-63
2023/09/13 03:28:57;;;;;;;26.15;20.10;;;;;;;32.03;nan;97875.03;5068227;28;20526;-62
2023/09/13 03:31:28;;;;;;;25.25;19.17;;;;;;;32.04;nan;97880.13;5069679;28;20048;-63
2023/09/13 03:34:00;;;;;;;24.25;18.90;;;;;;;32.14;nan;97878.84;5083814;28;20055;-63
2023/09/13 03:36:32;;;;;;;26.67;19.70;;;;;;;32.21;nan;97883.72;5083612;28;20133;-63
2023/09/13 03:39:03;;;;;;;24.17;18.60;;;;;;;32.32;nan;97876.53;5052537;28;20508;-64
2023/09/13 03:41:34;;;;;;;28.93;19.37;;;;;;;32.29;nan;97886.28;5062600;28;20056;-63
2023/09/13 03:44:05;;;;;;;25.10;18.70;;;;;;;32.44;nan;97882.72;5066799;28;20056;-63
2023/09/13 03:46:35;;;;;;;25.27;18.13;;;;;;;32.53;nan;97888.81;5075815;28;20123;-62
2023/09/13 03:49:04;;;;;;;25.65;18.75;;;;;;;32.51;nan;97895.81;5074781;28;20068;-63
2023/09/13 03:51:34;;;;;;;27.60;18.60;;;;;;;32.51;nan;97893.88;5077765;28;20048;-63
2023/09/13 03:54:03;;;;;;;24.35;18.48;;;;;;;32.61;nan;97889.78;5083401;28;20067;-63
2023/09/13 03:56:34;;;;;;;20.08;16.00;;;;;;;32.78;nan;97886.69;5066088;28;20049;-63
2023/09/13 03:59:03;;;;;;;25.40;16.92;;;;;;;32.71;nan;97905.72;5069024;28;20084;-63
2023/09/13 04:01:49;;;;;;;23.50;16.55;;;;;;;32.65;nan;97901.66;5086478;28;20093;-63
2023/09/13 04:04:18;;;;;;;25.98;17.52;;;;;;;32.76;nan;97908.19;5049589;28;20065;-63
2023/09/13 04:06:47;;;;;;;21.15;16.10;;;;;;;33.05;nan;97906.09;5055322;28;20072;-62
2023/09/13 04:09:18;;;;;;;21.67;16.92;;;;;;;32.94;nan;97898.41;5070139;28;20048;-63
2023/09/13 04:11:48;;;;;;;33.20;17.90;;;;;;;33.10;nan;97901.13;5065485;28;20059;-63
2023/09/13 04:14:17;;;;;;;35.03;17.30;;;;;;;33.19;nan;97901.72;5067342;28;20806;-63
2023/09/13 04:16:47;;;;;;;37.05;17.40;;;;;;;33.00;nan;97901.66;5076998;28;20056;-63
2023/09/13 04:19:16;;;;;;;20.77;16.85;;;;;;;33.14;nan;97910.25;5050041;28;20490;-63
2023/09/13 04:21:45;;;;;;;25.17;17.38;;;;;;;33.22;nan;97911.97;5075018;28;20051;-63
2023/09/13 04:24:14;;;;;;;26.08;16.90;;;;;;;33.35;nan;97913.44;5062885;28;20506;-63
2023/09/13 04:26:44;;;;;;;23.48;17.27;;;;;;;33.46;nan;97924.63;5060989;28;20131;-63
2023/09/13 04:29:13;;;;;;;27.63;17.92;;;;;;;33.41;nan;97925.69;5080880;28;20048;-63
2023/09/13 04:31:42;;;;;;;22.08;16.98;;;;;;;33.37;nan;97921.31;5081731;28;20052;-63
2023/09/13 04:34:12;;;;;;;20.88;16.63;;;;;;;33.64;nan;97920.28;5042973;28;20075;-63
2023/09/13 04:36:41;;;;;;;20.23;17.58;;;;;;;33.47;nan;97923.47;5066824;28;20556;-63
2023/09/13 04:39:11;;;;;;;25.05;16.23;;;;;;;33.62;nan;97914.38;5074771;28;20063;-63
2023/09/13 04:41:40;;;;;;;25.48;17.60;;;;;;;33.73;nan;97914.59;5061247;28;20048;-63
2023/09/13 04:44:10;;;;;;;19.85;16.42;;;;;;;33.99;nan;97922.16;5066307;28;20041;-63
2023/09/13 04:46:43;;;;;;;25.73;18.20;;;;;;;33.93;nan;97929.91;5082189;28;20652;-63
2023/09/13 04:49:12;;;;;;;;;;;;;;;34.01;nan;97931.63;5075377;28;20127;-63
2023/09/13 04:51:42;;;;;;;22.70;16.50;;;;;;;34.24;nan;97937.16;5066657;28;20288;-64
2023/09/13 04:54:12;;;;;;;17.52;15.73;;;;;;;34.18;nan;97930.38;5066060;28;20052;-64
2023/09/13 04:56:41;;;;;;;17.38;15.68;;;;;;;34.14;nan;97933.03;5066392;28;20079;-63
2023/09/13 04:59:11;;;;;;;21.70;16.10;;;;;;;34.56;nan;97924.75;5062534;28;20051;-63
2023/09/13 05:01:40;;;;;;;19.50;15.30;;;;;;;34.65;nan;97936.25;5063021;28;20052;-63
2023/09/13 05:04:10;;;;;;;22.77;15.27;;;;;;;34.49;nan;97932.88;5074769;28;20048;-63
2023/09/13 05:06:40;;;;;;;23.45;16.05;;;;;;;34.46;nan;97932.81;5078917;28;20050;-63
2023/09/13 05:09:09;;;;;;;20.63;15.77;;;;;;;34.96;nan;97939.91;5067381;28;20399;-64
2023/09/13 05:11:38;;;;;;;18.48;15.25;;;;;;;35.23;nan;97935.97;5058295;28;20070;-63
2023/09/13 05:14:14;;;;;;;17.88;15.95;;;;;;;35.23;nan;97941.47;5081804;28;20048;-64
2023/09/13 05:17:00;;;;;;;18.70;14.93;;;;;;;35.35;nan;97941.28;5070085;28;20049;-64
2023/09/13 05:19:30;;;;;;;19.02;16.25;;;;;;;35.47;nan;97951.25;5081287;28;20040;-64
2023/09/13 05:22:00;;;;;;;21.83;15.10;;;;;;;35.28;nan;97943.13;5085102;28;20537;-63
2023/09/13 05:24:29;;;;;;;23.52;15.40;;;;;;;35.35;nan;97944.03;5079143;28;20052;-63
2023/09/13 05:26:58;;;;;;;17.60;15.75;;;;;;;35.29;nan;97945.50;5079078;28;20048;-63
2023/09/13 05:29:28;;;;;;;19.73;16.00;;;;;;;35.13;nan;97939.38;5084003;28;20542;-64
2023/09/13 05:31:59;;;;;;;18.25;15.80;;;;;;;35.08;nan;97936.94;5078075;28;20494;-63
2023/09/13 05:34:30;;;;;;;20.52;15.70;;;;;;;35.26;nan;97928.94;5081932;28;20052;-63
2023/09/13 05:37:00;;;;;;;21.45;16.33;;;;;;;35.69;nan;97922.81;5083329;28;20044;-64
2023/09/13 05:39:45;;;;;;;20.17;15.48;;;;;;;35.46;nan;97924.84;5084452;28;20466;-63
2023/09/13 05:42:15;;;;;;;21.42;16.30;;;;;;;35.35;nan;97924.75;5083245;28;20051;-63
2023/09/13 05:45:01;;;;;;;17.63;15.68;;;;;;;35.12;nan;97918.50;5082169;28;20383;-63
2023/09/13 05:47:30;;;;;;;20.05;15.63;;;;;;;35.55;nan;97912.38;5083352;28;20060;-64
2023/09/13 05:50:00;;;;;;;20.13;15.48;;;;;;;35.68;nan;97917.66;5071334;28;20083;-63
2023/09/13 05:52:30;;;;;;;17.80;15.00;;;;;;;35.28;nan;97916.38;5049836;28;20041;-63
2023/09/13 05:54:59;;;;;;;27.65;15.93;;;;;;;35.43;nan;97912.63;5079841;28;20056;-63
2023/09/13 05:57:29;;;;;;;18.40;15.20;;;;;;;35.55;nan;97903.31;5075693;28;20044;-63
2023/09/13 05:59:58;;;;;;;17.67;15.60;;;;;;;35.53;nan;97903.72;5083622;28;20048;-63
2023/09/13 06:02:38;;;;;;;22.50;15.10;;;;;;;35.92;nan;97906.91;5081555;28;20411;-64
2023/09/13 06:05:09;;;;;;;20.88;16.52;;;;;;;36.04;nan;97898.38;5080284;28;20047;-64
2023/09/13 06:07:39;;;;;;;22.80;16.95;;;;;;;35.72;nan;97891.72;5077731;28;20056;-63
2023/09/13 06:10:10;;;;;;;20.70;16.15;;;;;;;35.72;nan;97900.00;5082213;28;20051;-64
2023/09/13 06:12:40;;;;;;;19.83;16.23;;;;;;;36.08;nan;97901.16;5081308;28;20118;-64
2023/09/13 06:15:10;;;;;;;22.45;17.10;;;;;;;36.00;nan;97892.03;5082987;28;20071;-63
2023/09/13 06:17:39;;;;;;;22.48;17.08;;;;;;;35.96;nan;97887.66;5083398;28;20630;-63
2023/09/13 06:20:09;;;;;;;22.08;17.15;;;;;;;36.03;nan;97887.72;5095986;28;20043;-63
2023/09/13 06:22:38;;;;;;;20.92;17.83;;;;;;;35.73;nan;97881.50;5076271;28;20468;-63
2023/09/13 06:25:08;;;;;;;22.95;17.10;;;;;;;36.13;nan;97880.75;5073645;28;20040;-63
2023/09/13 06:27:38;;;;;;;23.15;18.83;;;;;;;36.07;nan;97873.97;5079197;28;20063;-63
2023/09/13 06:30:08;;;;;;;28.50;19.58;;;;;;;36.24;nan;97868.66;5068882;28;20408;-63
2023/09/13 06:32:37;;;;;;;22.75;17.60;;;;;;;36.23;nan;97867.06;5073629;28;20059;-63
2023/09/13 06:35:13;;;;;;;24.00;17.90;;;;;;;36.31;nan;97856.84;5074743;28;20048;-63
2023/09/13 06:37:44;;;;;;;20.83;17.98;;;;;;;36.09;nan;97853.09;5080513;28;20135;-63
2023/09/13 06:40:15;;;;;;;26.30;19.30;;;;;;;35.68;nan;97855.09;5073478;28;20044;-63
2023/09/13 06:42:45;;;;;;;20.38;17.90;;;;;;;35.89;nan;97846.25;5073091;28;20053;-63
2023/09/13 06:45:28;;;;;;;20.30;18.10;;;;;;;35.87;nan;97843.06;5066633;28;20053;-63
2023/09/13 06:47:58;;;;;;;28.45;17.73;;;;;;;36.29;nan;97834.41;5073007;28;20295;-63
2023/09/13 06:50:32;;;;;;;21.25;18.83;;;;;;;36.08;nan;97831.44;5082316;28;20048;-63
2023/09/13 06:53:21;;;;;;;21.07;17.33;;;;;;;36.25;nan;97831.59;5079751;28;20954;-63
2023/09/13 06:56:02;;;;;;;18.40;16.23;;;;;;;36.50;nan;97828.22;5080489;28;20505;-63
2023/09/13 06:58:33;;;;;;;26.15;18.55;;;;;;;36.38;nan;97824.59;5068747;28;20052;-63
2023/09/13 07:01:05;;;;;;;20.80;16.93;;;;;;;36.19;nan;97822.13;5084629;28;20054;-64
2023/09/13 07:03:37;;;;;;;21.63;17.08;;;;;;;36.32;nan;97825.34;5086760;28;20043;-63
2023/09/13 07:06:08;;;;;;;21.27;16.55;;;;;;;36.12;nan;97824.78;5081751;28;20064;-63
2023/09/13 07:08:37;;;;;;;22.02;15.60;;;;;;;36.16;nan;97816.56;5051977;28;20727;-63
2023/09/13 07:11:06;;;;;;;17.70;15.13;;;;;;;36.26;nan;97815.84;5073044;28;20479;-63
2023/09/13 07:13:36;;;;;;;23.15;16.25;;;;;;;36.08;nan;97812.13;5085634;28;20054;-63
2023/09/13 07:16:09;;;;;;;23.08;16.20;;;;;;;36.18;nan;97803.19;5073877;28;20047;-64
2023/09/13 07:18:38;;;;;;;18.73;14.13;;;;;;;35.94;nan;97804.53;5084038;28;20652;-63
2023/09/13 07:21:07;;;;;;;18.50;15.45;;;;;;;36.21;nan;97803.19;5075056;28;20048;-63
2023/09/13 07:23:37;;;;;;;17.63;15.80;;;;;;;36.52;nan;97806.56;5081837;28;20060;-62
2023/09/13 07:26:07;;;;;;;26.02;17.27;;;;;;;36.45;nan;97799.81;5084981;28;20082;-63
2023/09/13 07:28:37;;;;;;;19.73;15.80;;;;;;;36.54;nan;97798.69;5076209;28;20048;-63
2023/09/13 07:31:08;;;;;;;20.40;16.73;;;;;;;36.03;nan;97797.53;5073782;28;20494;-63
2023/09/13 07:33:38;;;;;;;19.70;16.25;;;;;;;36.39;nan;97795.84;5078731;28;20146;-63
2023/09/13 07:36:07;;;;;;;18.85;16.23;;;;;;;36.23;nan;97789.03;5077827;28;20044;-62
2023/09/13 07:38:37;;;;;;;20.60;16.45;;;;;;;36.31;nan;97785.16;5049166;28;20049;-63
2023/09/13 07:41:07;;;;;;;19.50;16.45;;;;;;;36.32;nan;97768.22;5078278;28;20052;-64
2023/09/13 07:43:36;;;;;;;22.45;16.65;;;;;;;36.25;nan;97779.19;5082958;28;20052;-63
2023/09/13 07:46:06;;;;;;;23.60;17.42;;;;;;;36.21;nan;97781.13;5077705;28;20108;-64
2023/09/13 07:48:35;;;;;;;25.60;18.50;;;;;;;36.14;nan;97770.06;5069554;28;20095;-62
2023/09/13 07:51:05;;;;;;;22.17;17.73;;;;;;;36.05;nan;97775.09;5081676;28;20056;-62
2023/09/13 07:53:34;;;;;;;28.80;18.60;;;;;;;35.70;nan;97766.53;5083889;28;20074;-63
2023/09/13 07:56:03;;;;;;;22.15;18.02;;;;;;;35.59;nan;97767.19;5095867;28;20051;-64
2023/09/13 07:58:33;;;;;;;19.77;17.65;;;;;;;35.46;nan;97768.66;5073544;28;20462;-64
2023/09/13 08:01:02;;;;;;;19.73;17.30;;;;;;;35.11;nan;97763.53;5069095;28;20058;-62
2023/09/13 08:03:33;;;;;;;22.75;18.25;;;;;;;35.44;nan;97757.22;5064041;28;20048;-62
2023/09/13 08:06:03;;;;;;;20.02;17.90;;;;;;;35.44;nan;97748.97;5069417;28;20164;-61
2023/09/13 08:08:35;;;;;;;25.48;18.88;;;;;;;35.55;nan;97746.28;5064150;28;20052;-62
2023/09/13 08:11:05;;;;;;;25.80;18.13;;;;;;;35.52;nan;97739.59;5093886;28;20054;-61
2023/09/13 08:13:46;;;;;;;23.15;18.48;;;;;;;35.24;nan;97738.50;5079208;28;20447;-62
2023/09/13 08:16:16;;;;;;;28.00;18.42;;;;;;;35.36;nan;97741.00;5064262;28;20410;-63
2023/09/13 08:18:48;;;;;;;25.45;19.23;;;;;;;35.46;nan;97724.56;5079212;28;20061;-62
2023/09/13 08:21:18;;;;;;;19.55;17.13;;;;;;;35.56;nan;97726.63;5071293;28;20157;-65
2023/09/13 08:23:47;;;;;;;28.38;18.45;;;;;;;35.65;nan;97733.81;5069764;28;20614;-63
2023/09/13 08:26:17;;;;;;;25.73;18.83;;;;;;;35.58;nan;97715.25;5071514;28;20060;-64
2023/09/13 08:28:55;;;;;;;21.33;17.83;;;;;;;35.41;nan;97716.66;5077014;28;20471;-62
2023/09/13 08:31:25;;;;;;;24.77;18.40;;;;;;;35.45;nan;97706.44;5067993;28;20048;-64
2023/09/13 08:33:55;;;;;;;22.17;18.27;;;;;;;35.59;nan;97705.78;5072736;28;20047;-64
2023/09/13 08:36:24;;;;;;;22.02;18.38;;;;;;;35.73;nan;97697.66;5072553;28;20048;-64
2023/09/13 08:38:53;;;;;;;25.27;18.90;;;;;;;35.80;nan;97697.75;5069287;28;20801;-64
2023/09/13 08:41:23;;;;;;;22.88;19.17;;;;;;;35.68;nan;97697.22;5067853;28;20056;-64
2023/09/13 08:43:53;;;;;;;24.08;18.10;;;;;;;35.59;nan;97684.53;5083949;28;20052;-64
2023/09/13 08:46:24;;;;;;;23.20;17.98;;;;;;;35.63;nan;97687.31;5064791;28;20041;-64
2023/09/13 08:48:56;;;;;;;23.70;18.30;;;;;;;35.56;nan;97685.31;5063927;28;20048;-62
2023/09/13 08:51:27;;;;;;;23.08;18.90;;;;;;;35.62;nan;97676.69;5079194;28;20094;-63
2023/09/13 08:53:56;;;;;;;22.27;18.33;;;;;;;35.81;nan;97670.94;5078466;28;20129;-63
2023/09/13 08:56:29;;;;;;;25.98;19.00;;;;;;;35.76;nan;97676.84;5065850;28;20054;-64
2023/09/13 08:58:59;;;;;;;25.93;19.40;;;;;;;35.60;nan;97674.31;5075805;28;20119;-64
2023/09/13 09:01:31;;;;;;;;;;;;;;;35.68;nan;97670.47;5076761;28;20557;-64
2023/09/13 09:04:02;;;;;;;24.10;19.13;;;;;;;35.47;nan;97665.56;5049064;28;19930;-64
2023/09/13 09:06:33;;;;;;;21.38;18.20;;;;;;;35.30;nan;97657.94;5061793;28;20040;-64
2023/09/13 09:09:07;;;;;;;24.25;20.10;;;;;;;35.54;nan;97657.34;5058847;28;20047;-64
2023/09/13 09:11:38;;;;;;;25.30;19.80;;;;;;;35.49;nan;97648.66;5068044;28;20052;-63
2023/09/13 09:14:11;;;;;;;33.88;20.50;;;;;;;35.27;nan;97639.44;5070013;28;20052;-64
2023/09/13 09:16:43;;;;;;;25.73;20.00;;;;;;;35.41;nan;97642.28;5075093;28;20763;-64
2023/09/13 09:19:13;;;;;;;26.70;20.60;;;;;;;35.29;nan;97645.34;5069695;28;20384;-65
2023/09/13 09:22:02;;;;;;;24.58;20.05;;;;;;;35.36;nan;97644.63;5053706;28;20049;-66
2023/09/13 09:24:32;;;;;;;;;;;;;;;35.11;nan;97645.16;5056059;28;20049;-65
2023/09/13 09:27:02;;;;;;;26.08;19.65;;;;;;;35.06;nan;97640.00;5053172;28;20558;-65
2023/09/13 09:29:41;;;;;;;21.60;17.77;;;;;;;34.93;nan;97629.63;5058516;28;20044;-65
2023/09/13 09:32:12;;;;;;;22.73;18.77;;;;;;;35.08;nan;97637.66;5050500;28;20063;-65
2023/09/13 09:34:42;;;;;;;23.17;19.27;;;;;;;35.06;nan;97640.00;5051004;28;20056;-64
2023/09/13 09:37:12;;;;;;;24.80;18.33;;;;;;;34.96;nan;97626.94;5048104;28;20052;-64
2023/09/13 09:39:42;;;;;;;29.35;19.25;;;;;;;34.89;nan;97623.31;5047504;28;20063;-64
2023/09/13 09:42:15;;;;;;;23.27;19.35;;;;;;;34.89;nan;97618.59;5048538;28;20046;-66
2023/09/13 09:45:01;;;;;;;20.92;18.83;;;;;;;34.90;nan;97611.13;5043365;28;20036;-66
2023/09/13 09:47:37;;;;;;;26.38;20.05;;;;;;;34.88;nan;97603.25;5051857;28;20048;-65
2023/09/13 09:50:13;;;;;;;31.23;20.08;;;;;;;34.82;nan;97596.53;5050697;28;20045;-65
2023/09/13 09:52:48;;;;;;;26.90;19.55;;;;;;;34.84;nan;97599.66;5056176;28;20059;-64
2023/09/13 09:55:24;;;;;;;22.33;18.90;;;;;;;34.76;nan;97597.22;5049969;28;20049;-65
2023/09/13 09:57:56;;;;;;;27.98;19.67;;;;;;;34.71;nan;97587.34;5056648;28;20170;-64
2023/09/13 10:00:26;;;;;;;26.33;20.63;;;;;;;34.71;nan;97584.59;5049849;28;20075;-64
2023/09/13 10:02:56;;;;;;;27.25;20.23;;;;;;;34.78;nan;97584.69;5055168;28;20045;-64
2023/09/13 10:05:26;;;;;;;26.83;20.90;;;;;;;34.64;nan;97577.06;5052612;28;20053;-62
2023/09/13 10:07:55;;;;;;;27.17;21.45;;;;;;;34.62;nan;97581.34;5050328;28;20428;-63
2023/09/13 10:10:37;;;;;;;26.48;19.40;;;;;;;34.70;nan;97583.00;5054947;28;20059;-63
2023/09/13 10:13:07;;;;;;;23.00;19.92;;;;;;;34.59;nan;97574.66;5054198;28;20121;-61
2023/09/13 10:15:38;;;;;;;25.55;21.40;;;;;;;34.53;nan;97578.88;5049581;28;20056;-62
2023/09/13 10:18:12;;;;;;;25.23;20.33;;;;;;;34.46;nan;97578.03;5053062;28;20055;-62
2023/09/13 10:20:44;;;;;;;27.95;21.75;;;;;;;34.45;nan;97569.00;5062773;28;20500;-62
2023/09/13 10:23:17;;;;;;;22.88;20.45;;;;;;;34.34;nan;97567.31;5079068;28;20194;-63
2023/09/13 10:25:47;;;;;;;23.55;20.35;;;;;;;34.36;nan;97568.50;5074543;28;20469;-63
2023/09/13 10:28:23;;;;;;;23.25;19.40;;;;;;;34.26;nan;97569.16;5078497;28;20487;-64
2023/09/13 10:30:53;;;;;;;25.40;19.10;;;;;;;34.19;nan;97566.34;5082966;28;20048;-64
2023/09/13 10:33:25;;;;;;;29.88;19.17;;;;;;;34.19;nan;97563.59;5081217;28;20064;-62
2023/09/13 10:35:59;;;;;;;24.02;20.13;;;;;;;34.09;nan;97564.22;5083549;28;20543;-63
2023/09/13 10:38:46;;;;;;;25.13;19.50;;;;;;;34.15;nan;97565.47;5083414;28;20048;-63
2023/09/13 10:41:19;;;;;;;20.33;18.20;;;;;;;34.03;nan;97560.22;5078797;28;20044;-63
2023/09/13 10:43:51;;;;;;;27.05;18.80;;;;;;;34.01;nan;97554.31;5068852;28;20151;-63
2023/09/13 10:46:21;;;;;;;25.10;18.95;;;;;;;33.93;nan;97555.38;5080248;28;20036;-62
2023/09/13 10:48:53;;;;;;;22.55;18.40;;;;;;;33.93;nan;97556.19;5082140;28;20450;-64
2023/09/13 10:51:23;;;;;;;31.30;20.20;;;;;;;33.87;nan;97559.63;5080317;28;20062;-63
2023/09/13 10:53:52;;;;;;;20.98;18.88;;;;;;;33.88;nan;97547.47;5073648;28;20139;-63
2023/09/13 10:56:23;;;;;;;24.08;18.60;;;;;;;33.84;nan;97550.19;5081529;28;20056;-63
2023/09/13 10:58:55;;;;;;;22.20;18.35;;;;;;;33.79;nan;97548.53;5083272;28;20051;-62
2023/09/13 11:01:27;;;;;;;30.75;20.50;;;;;;;33.80;nan;97549.34;5079455;28;20048;-62
2023/09/13 11:03:57;;;;;;;21.35;19.05;;;;;;;33.83;nan;97545.84;5076669;28;20139;-64
2023/09/13 11:06:28;;;;;;;25.92;18.75;;;;;;;33.82;nan;97542.28;5089071;28;20051;-64
2023/09/13 11:09:14;;;;;;;26.33;18.75;;;;;;;33.75;nan;97538.69;5087599;28;20048;-63
2023/09/13 11:11:53;;;;;;;22.58;19.20;;;;;;;33.72;nan;97540.22;5081850;28;20110;-63
2023/09/13 11:14:33;;;;;;;23.02;18.85;;;;;;;33.59;nan;97547.03;5081599;28;20150;-64
2023/09/13 11:17:29;;;;;;;22.60;19.10;;;;;;;33.58;nan;97545.50;5070014;28;20052;-63
2023/09/13 11:20:21;;;;;;;21.85;19.48;;;;;;;33.53;nan;97540.31;5071643;28;20052;-62
2023/09/13 11:23:19;;;;;;;28.35;19.65;;;;;;;33.47;nan;97541.78;5080093;28;20052;-64
2023/09/13 11:25:53;;;;;;;24.40;20.10;;;;;;;33.41;nan;97546.78;5068712;28;20193;-62
2023/09/13 11:28:39;;;;;;;25.42;20.42;;;;;;;33.35;nan;97547.50;5079351;28;20048;-64
2023/09/13 11:31:09;;;;;;;25.50;20.13;;;;;;;33.32;nan;97543.56;5070879;28;20078;-62
2023/09/13 11:33:56;;;;;;;27.13;20.27;;;;;;;33.22;nan;97541.44;5073361;28;20050;-62
2023/09/13 11:36:27;;;;;;;23.30;19.60;;;;;;;33.18;nan;97537.03;5078411;28;20059;-62
2023/09/13 11:39:01;;;;;;;24.80;20.55;;;;;;;33.08;nan;97537.63;5082624;28;20054;-62
2023/09/13 11:41:40;;;;;;;25.85;21.25;;;;;;;33.07;nan;97547.81;5078498;28;20409;-62
2023/09/13 11:44:25;;;;;;;32.72;21.45;;;;;;;33.00;nan;97547.72;5080880;28;20048;-62
2023/09/13 11:47:02;;;;;;;33.28;21.83;;;;;;;32.93;nan;97531.91;5087351;28;20075;-61
2023/09/13 11:49:37;;;;;;;29.50;21.55;;;;;;;32.88;nan;97534.19;5078086;28;20058;-62
2023/09/13 11:52:16;;;;;;;23.15;20.50;;;;;;;32.93;nan;97542.88;5078964;28;20446;-62
2023/09/13 11:55:00;;;;;;;27.38;20.25;;;;;;;32.93;nan;97544.84;5081718;28;20059;-62
2023/09/13 11:57:53;;;;;;;32.80;21.27;;;;;;;32.86;nan;97548.25;5080319;28;20044;-61